createdAt,value
2023-04-15T00:01:53.719Z,13.18
2023-04-15T00:04:21.891Z,13.75
2023-04-15T00:06:55.639Z,9.32
2023-04-15T00:09:23.239Z,10.13
2023-04-15T00:11:51.480Z,11.32
2023-04-15T00:14:19.114Z,12.68
2023-04-15T00:16:46.422Z,14.07
2023-04-15T00:19:13.755Z,13.23
2023-04-15T00:21:41.573Z,11.18
2023-04-15T00:24:09.186Z,12.52
2023-04-15T00:26:36.756Z,13.15
2023-04-15T00:29:03.935Z,12.27
2023-04-15T00:31:32.225Z,12.32
2023-04-15T00:34:00.004Z,10.70
2023-04-15T00:36:27.830Z,14.00
2023-04-15T00:38:55.018Z,13.85
2023-04-15T00:41:23.238Z,14.45
2023-04-15T00:43:50.488Z,15.32
2023-04-15T00:46:18.255Z,13.80
2023-04-15T00:48:45.651Z,12.73
2023-04-15T00:51:13.835Z,11.15
2023-04-15T00:53:57.100Z,11.80
2023-04-15T00:56:24.600Z,12.18
2023-04-15T00:58:52.549Z,13.15
2023-04-15T01:01:21.709Z,14.20
2023-04-15T01:03:52.665Z,13.68
2023-04-15T01:06:20.058Z,14.65
2023-04-15T01:08:47.220Z,12.82
2023-04-15T01:11:15.414Z,13.00
2023-04-15T01:13:42.643Z,12.55
2023-04-15T01:16:09.855Z,13.02
2023-04-15T01:18:38.569Z,11.65
2023-04-15T01:21:07.759Z,13.93
2023-04-15T01:23:37.742Z,12.20
2023-04-15T01:26:07.068Z,14.52
2023-04-15T01:28:34.368Z,13.40
2023-04-15T01:31:13.549Z,12.57
2023-04-15T01:33:42.299Z,15.18
2023-04-15T01:36:10.397Z,13.85
2023-04-15T01:38:39.624Z,12.63
2023-04-15T01:41:09.939Z,11.25
2023-04-15T01:43:40.123Z,13.15
2023-04-15T01:46:09.592Z,11.88
2023-04-15T01:48:37.395Z,12.13
2023-04-15T01:51:04.854Z,15.30
2023-04-15T01:53:32.567Z,15.88
2023-04-15T01:55:59.720Z,11.02
2023-04-15T01:58:27.466Z,16.67
2023-04-15T02:00:55.211Z,11.23
2023-04-15T02:03:22.538Z,11.27
2023-04-15T02:05:51.288Z,10.68
2023-04-15T02:08:18.512Z,14.45
2023-04-15T02:10:46.007Z,13.95
2023-04-15T02:13:13.720Z,15.50
2023-04-15T02:15:41.068Z,13.43
2023-04-15T02:18:08.215Z,13.07
2023-04-15T02:20:38.269Z,13.43
2023-04-15T02:23:07.668Z,12.57
2023-04-15T02:25:35.936Z,13.73
2023-04-15T02:28:08.302Z,13.20
2023-04-15T02:30:36.623Z,14.23
2023-04-15T02:33:04.230Z,15.57
2023-04-15T02:35:32.996Z,13.35
2023-04-15T02:38:01.091Z,13.20
2023-04-15T02:40:28.549Z,15.70
2023-04-15T02:42:56.456Z,15.20
2023-04-15T02:45:26.417Z,15.77
2023-04-15T02:47:53.830Z,16.23
2023-04-15T02:50:21.439Z,12.77
2023-04-15T02:52:48.690Z,17.50
2023-04-15T02:55:16.046Z,15.18
2023-04-15T02:57:43.166Z,12.70
2023-04-15T03:00:12.991Z,14.27
2023-04-15T03:02:43.343Z,17.10
2023-04-15T03:05:14.589Z,16.17
2023-04-15T03:07:48.305Z,15.90
2023-04-15T03:10:15.540Z,13.07
2023-04-15T03:12:43.716Z,11.55
2023-04-15T03:15:15.819Z,13.38
2023-04-15T03:20:13.546Z,15.60
2023-04-15T03:22:40.941Z,13.50
2023-04-15T03:25:09.504Z,12.60
2023-04-15T03:27:38.836Z,15.80
2023-04-15T03:30:07.015Z,11.85
2023-04-15T03:32:37.052Z,12.98
2023-04-15T03:35:05.647Z,15.25
2023-04-15T03:37:32.848Z,14.68
2023-04-15T03:40:00.196Z,16.92
2023-04-15T03:42:27.389Z,14.75
2023-04-15T03:44:54.561Z,13.77
2023-04-15T03:47:21.722Z,13.50
2023-04-15T03:49:48.846Z,13.77
2023-04-15T03:52:16.647Z,13.98
2023-04-15T03:54:44.054Z,15.23
2023-04-15T03:57:11.314Z,16.58
2023-04-15T03:59:38.549Z,13.82
2023-04-15T04:02:06.139Z,16.00
2023-04-15T04:04:33.597Z,15.27
2023-04-15T04:07:00.956Z,13.90
2023-04-15T04:09:28.078Z,14.23
2023-04-15T04:11:56.303Z,15.60
2023-04-15T04:14:29.269Z,17.00
2023-04-15T04:16:57.423Z,14.77
2023-04-15T04:19:24.807Z,14.48
2023-04-15T04:21:52.138Z,15.07
2023-04-15T04:24:19.587Z,14.57
2023-04-15T04:26:46.908Z,14.10
2023-04-15T04:29:14.218Z,13.93
2023-04-15T04:31:41.261Z,13.82
2023-04-15T04:34:08.546Z,14.55
2023-04-15T04:36:36.149Z,13.73
2023-04-15T04:39:03.768Z,14.88
2023-04-15T04:41:31.235Z,13.88
2023-04-15T04:43:58.650Z,13.77
2023-04-15T04:46:25.815Z,13.93
2023-04-15T04:48:53.437Z,13.18
2023-04-15T04:51:21.846Z,13.85
2023-04-15T04:53:48.989Z,14.55
2023-04-15T04:56:16.361Z,12.88
2023-04-15T04:58:43.963Z,12.30
2023-04-15T05:01:11.678Z,13.25
2023-04-15T05:03:39.139Z,14.10
2023-04-15T05:06:07.534Z,13.85
2023-04-15T05:08:34.676Z,14.00
2023-04-15T05:11:01.940Z,12.40
2023-04-15T05:13:30.378Z,13.38
2023-04-15T05:15:57.528Z,14.48
2023-04-15T05:18:24.725Z,12.88
2023-04-15T05:20:52.425Z,12.43
2023-04-15T05:23:20.044Z,13.02
2023-04-15T05:25:47.289Z,14.27
2023-04-15T05:28:14.504Z,14.20
2023-04-15T05:30:41.977Z,11.52
2023-04-15T05:33:09.586Z,14.32
2023-04-15T05:35:37.096Z,12.95
2023-04-15T05:38:04.416Z,11.15
2023-04-15T05:40:32.186Z,14.68
2023-04-15T05:42:59.283Z,16.88
2023-04-15T05:45:27.454Z,14.98
2023-04-15T05:47:54.690Z,13.23
2023-04-15T05:50:21.968Z,12.45
2023-04-15T05:52:49.283Z,12.13
2023-04-15T05:55:16.561Z,13.00
2023-04-15T05:57:43.712Z,14.70
2023-04-15T06:00:11.166Z,15.40
2023-04-15T06:02:38.969Z,13.73
2023-04-15T06:05:10.637Z,15.45
2023-04-15T06:07:38.344Z,18.08
2023-04-15T06:10:06.110Z,13.65
2023-04-15T06:12:34.155Z,13.93
2023-04-15T06:15:01.529Z,15.75
2023-04-15T06:17:29.010Z,12.77
2023-04-15T06:19:56.534Z,13.95
2023-04-15T06:22:24.076Z,13.63
2023-04-15T06:24:51.576Z,17.77
2023-04-15T06:27:18.860Z,17.45
2023-04-15T06:29:46.213Z,14.05
2023-04-15T06:32:13.807Z,12.73
2023-04-15T06:34:41.436Z,13.88
2023-04-15T06:37:10.951Z,15.20
2023-04-15T06:39:38.323Z,13.73
2023-04-15T06:42:05.824Z,13.75
2023-04-15T06:44:33.996Z,12.00
2023-04-15T06:47:01.324Z,14.50
2023-04-15T06:49:28.403Z,14.68
2023-04-15T06:51:55.658Z,15.00
2023-04-15T06:54:22.875Z,14.38
2023-04-15T06:56:50.085Z,14.27
2023-04-15T06:59:17.457Z,13.38
2023-04-15T07:01:44.690Z,13.30
2023-04-15T07:04:12.602Z,12.68
2023-04-15T07:06:39.868Z,14.30
2023-04-15T07:09:07.186Z,12.32
2023-04-15T07:11:36.447Z,12.77
2023-04-15T07:14:03.808Z,13.95
2023-04-15T07:16:31.118Z,13.32
2023-04-15T07:18:58.437Z,14.20
2023-04-15T07:21:25.787Z,14.10
2023-04-15T07:23:53.320Z,12.48
2023-04-15T07:26:21.028Z,13.75
2023-04-15T07:28:48.238Z,12.18
2023-04-15T07:31:15.204Z,13.45
2023-04-15T07:33:42.376Z,13.30
2023-04-15T07:36:10.591Z,12.38
2023-04-15T07:38:37.756Z,13.68
2023-04-15T07:41:05.003Z,14.30
2023-04-15T07:43:32.185Z,12.93
2023-04-15T07:46:00.100Z,13.00
2023-04-15T07:48:27.253Z,13.50
2023-04-15T07:50:54.416Z,12.30
2023-04-15T07:53:21.668Z,12.45
2023-04-15T07:55:48.838Z,11.82
2023-04-15T07:58:16.349Z,12.45
2023-04-15T08:00:43.627Z,10.30
2023-04-15T08:03:11.443Z,11.23
2023-04-15T08:05:40.473Z,10.88
2023-04-15T08:08:12.923Z,10.85
2023-04-15T08:10:40.128Z,11.45
2023-04-15T08:13:07.797Z,10.77
2023-04-15T08:15:34.675Z,9.82
2023-04-15T08:18:02.066Z,11.05
2023-04-15T08:20:29.988Z,10.50
2023-04-15T08:22:57.385Z,11.55
2023-04-15T08:25:24.659Z,11.82
2023-04-15T08:27:51.505Z,10.43
2023-04-15T08:30:19.444Z,11.52
2023-04-15T08:32:47.732Z,12.02
2023-04-15T08:35:15.450Z,9.70
2023-04-15T08:37:42.733Z,10.25
2023-04-15T08:40:10.798Z,9.40
2023-04-15T08:42:42.929Z,10.32
2023-04-15T08:45:11.479Z,9.57
2023-04-15T08:47:42.527Z,9.85
2023-04-15T08:50:11.103Z,11.32
2023-04-15T08:52:38.759Z,9.98
2023-04-15T08:55:08.278Z,11.75
2023-04-15T08:57:36.720Z,7.32
2023-04-15T09:00:05.720Z,6.88
2023-04-15T09:02:33.397Z,6.72
2023-04-15T09:05:01.237Z,7.20
2023-04-15T09:07:30.575Z,7.93
2023-04-15T09:09:59.059Z,7.38
2023-04-15T09:12:26.446Z,6.35
2023-04-15T09:14:53.894Z,5.90
2023-04-15T09:17:21.662Z,7.35
2023-04-15T09:19:51.157Z,6.72
2023-04-15T09:22:18.387Z,5.15
2023-04-15T09:24:46.439Z,6.15
2023-04-15T09:27:19.657Z,6.97
2023-04-15T09:29:51.781Z,7.90
2023-04-15T09:32:18.656Z,8.05
2023-04-15T09:34:46.434Z,8.70
2023-04-15T09:37:29.061Z,9.07
2023-04-15T09:39:58.817Z,11.40
2023-04-15T09:42:27.023Z,10.63
2023-04-15T09:44:54.338Z,11.50
2023-04-15T09:47:32.253Z,10.07
2023-04-15T09:50:00.784Z,8.30
2023-04-15T09:52:28.621Z,7.03
2023-04-15T09:54:56.821Z,8.45
2023-04-15T09:57:24.514Z,9.20
2023-04-15T09:59:52.161Z,7.22
2023-04-15T10:02:21.587Z,7.22
2023-04-15T10:04:49.680Z,7.22
2023-04-15T10:07:20.716Z,7.70
2023-04-15T10:09:49.431Z,7.85
2023-04-15T10:12:17.906Z,7.50
2023-04-15T10:14:45.033Z,6.63
2023-04-15T10:17:16.717Z,7.28
2023-04-15T10:19:44.782Z,7.20
2023-04-15T10:22:12.044Z,7.53
2023-04-15T10:24:42.735Z,7.57
2023-04-15T10:27:10.117Z,6.22
2023-04-15T10:29:37.785Z,7.95
2023-04-15T10:32:05.565Z,7.93
2023-04-15T10:34:33.105Z,7.93
2023-04-15T10:37:03.456Z,8.50
2023-04-15T10:39:33.838Z,9.05
2023-04-15T10:42:17.379Z,8.80
2023-04-15T10:44:49.751Z,7.50
2023-04-15T10:47:19.454Z,9.68
2023-04-15T10:49:47.326Z,8.75
2023-04-15T10:52:18.416Z,8.65
2023-04-15T10:54:45.852Z,7.95
2023-04-15T10:57:22.209Z,8.10
2023-04-15T11:00:13.575Z,8.80
2023-04-15T11:03:07.482Z,8.18
2023-04-15T11:05:52.489Z,6.97
2023-04-15T11:08:20.793Z,7.28
2023-04-15T11:10:47.893Z,6.85
2023-04-15T11:13:21.949Z,6.55
2023-04-15T11:15:49.950Z,5.57
2023-04-15T11:18:24.849Z,5.75
2023-04-15T11:20:59.738Z,5.13
2023-04-15T11:23:49.544Z,5.22
2023-04-15T11:26:16.805Z,4.80
2023-04-15T11:28:45.731Z,5.78
2023-04-15T11:31:18.057Z,5.75
2023-04-15T11:33:47.629Z,5.78
2023-04-15T11:36:15.004Z,4.60
2023-04-15T11:38:47.552Z,5.15
2023-04-15T11:41:14.855Z,4.80
2023-04-15T11:43:42.926Z,4.43
2023-04-15T11:46:10.483Z,4.47
2023-04-15T11:48:37.314Z,5.78
2023-04-15T11:51:06.135Z,5.05
2023-04-15T11:53:39.310Z,5.15
2023-04-15T11:56:07.054Z,5.57
2023-04-15T11:58:37.727Z,4.47
2023-04-15T12:01:05.831Z,5.43
2023-04-15T12:03:45.481Z,3.75
2023-04-15T12:06:25.948Z,6.50
2023-04-15T12:08:55.861Z,5.18
2023-04-15T12:11:51.278Z,5.50
2023-04-15T12:14:18.456Z,6.68
2023-04-15T12:16:50.106Z,6.72
2023-04-15T12:19:35.235Z,4.53
2023-04-15T12:22:05.321Z,7.93
2023-04-15T12:24:33.418Z,5.07
2023-04-15T12:27:10.786Z,6.07
2023-04-15T12:29:39.876Z,5.55
2023-04-15T12:32:11.074Z,5.28
2023-04-15T12:34:40.452Z,4.65
2023-04-15T12:37:09.695Z,5.85
2023-04-15T12:39:38.365Z,4.40
2023-04-15T12:42:06.109Z,7.13
2023-04-15T12:44:33.991Z,6.45
2023-04-15T12:47:01.535Z,4.78
2023-04-15T12:49:28.984Z,4.20
2023-04-15T12:51:57.829Z,5.03
2023-04-15T12:54:24.577Z,5.32
2023-04-15T12:56:51.440Z,4.05
2023-04-15T12:59:18.770Z,5.32
2023-04-15T13:01:46.656Z,5.57
2023-04-15T13:04:14.013Z,4.25
2023-04-15T13:06:41.432Z,5.75
2023-04-15T13:09:08.570Z,6.90
2023-04-15T13:11:36.452Z,6.38
2023-04-15T13:14:06.176Z,6.38
2023-04-15T13:16:34.283Z,5.93
2023-04-15T13:19:02.546Z,6.00
2023-04-15T13:21:29.742Z,4.95
2023-04-15T13:23:56.996Z,3.70
2023-04-15T13:26:24.091Z,4.40
2023-04-15T13:28:51.302Z,5.35
2023-04-15T13:31:18.504Z,2.95
2023-04-15T13:33:45.705Z,6.22
2023-04-15T13:36:12.949Z,5.95
2023-04-15T13:38:40.279Z,6.32
2023-04-15T13:41:07.444Z,6.18
2023-04-15T13:43:34.920Z,6.30
2023-04-15T13:46:02.054Z,3.95
2023-04-15T13:48:29.667Z,4.88
2023-04-15T13:50:56.836Z,4.82
2023-04-15T13:53:38.582Z,3.78
2023-04-15T13:56:07.941Z,3.65
2023-04-15T13:58:35.550Z,6.13
2023-04-15T14:01:05.510Z,5.00
2023-04-15T14:03:33.714Z,4.00
2023-04-15T14:06:01.406Z,4.43
2023-04-15T14:08:28.268Z,3.33
2023-04-15T14:10:55.612Z,2.83
2023-04-15T14:13:22.400Z,4.03
2023-04-15T14:15:49.685Z,4.68
2023-04-15T14:18:16.921Z,4.82
2023-04-15T14:20:44.291Z,5.97
2023-04-15T14:23:11.750Z,6.50
2023-04-15T14:25:41.939Z,4.85
2023-04-15T14:28:09.285Z,3.42
2023-04-15T14:30:36.784Z,5.07
2023-04-15T14:33:04.261Z,5.35
2023-04-15T14:35:31.546Z,5.05
2023-04-15T14:37:58.735Z,2.85
2023-04-15T14:40:25.967Z,3.75
2023-04-15T14:42:53.291Z,4.55
2023-04-15T14:45:20.259Z,4.25
2023-04-15T14:47:47.592Z,6.28
2023-04-15T14:50:15.570Z,4.18
2023-04-15T14:52:42.776Z,4.00
2023-04-15T14:55:10.737Z,6.95
2023-04-15T14:57:39.259Z,6.15
2023-04-15T15:00:07.555Z,3.92
2023-04-15T15:02:39.784Z,8.50
2023-04-15T15:05:08.442Z,5.30
2023-04-15T15:07:37.172Z,5.05
2023-04-15T15:10:04.865Z,5.63
2023-04-15T15:12:32.180Z,6.53
2023-04-15T15:15:00.448Z,6.10
2023-04-15T15:17:27.980Z,7.85
2023-04-15T15:19:55.091Z,6.30
2023-04-15T15:22:23.625Z,3.67
2023-04-15T15:24:50.980Z,4.57
2023-04-15T15:27:18.474Z,7.90
2023-04-15T15:29:46.545Z,5.90
2023-04-15T15:32:13.926Z,6.13
2023-04-15T15:34:41.389Z,7.28
2023-04-15T15:37:08.679Z,6.32
2023-04-15T15:39:36.562Z,5.05
2023-04-15T15:42:03.700Z,8.48
2023-04-15T15:44:32.482Z,7.32
2023-04-15T15:47:00.987Z,8.30
2023-04-15T15:49:28.923Z,5.32
2023-04-15T15:51:56.618Z,3.67
2023-04-15T15:54:23.967Z,6.25
2023-04-15T15:56:51.191Z,5.25
2023-04-15T15:59:18.312Z,9.15
2023-04-15T16:01:45.623Z,4.82
2023-04-15T16:04:13.000Z,4.28
2023-04-15T16:06:40.961Z,10.25
2023-04-15T16:09:08.408Z,5.47
2023-04-15T16:11:35.230Z,5.53
2023-04-15T16:14:02.520Z,7.15
2023-04-15T16:16:30.073Z,9.68
2023-04-15T16:19:00.438Z,6.57
2023-04-15T16:21:27.819Z,6.30
2023-04-15T16:23:55.068Z,7.93
2023-04-15T16:26:22.279Z,8.68
2023-04-15T16:28:49.455Z,8.30
2023-04-15T16:31:16.834Z,6.55
2023-04-15T16:33:43.965Z,6.18
2023-04-15T16:36:11.240Z,7.85
2023-04-15T16:38:38.746Z,6.53
2023-04-15T16:41:06.008Z,11.00
2023-04-15T16:43:33.325Z,7.72
2023-04-15T16:46:00.733Z,5.88
2023-04-15T16:48:28.218Z,11.07
2023-04-15T16:50:55.423Z,4.63
2023-04-15T16:53:22.647Z,6.28
2023-04-15T16:55:49.792Z,6.78
2023-04-15T16:58:17.211Z,8.32
2023-04-15T17:00:44.686Z,5.10
2023-04-15T17:03:12.201Z,4.43
2023-04-15T17:05:39.854Z,7.95
2023-04-15T17:08:07.029Z,7.57
2023-04-15T17:10:34.406Z,6.53
2023-04-15T17:13:01.735Z,9.20
2023-04-15T17:15:29.338Z,5.20
2023-04-15T17:17:56.660Z,8.30
2023-04-15T17:20:23.965Z,4.00
2023-04-15T17:22:51.159Z,6.22
2023-04-15T17:25:19.557Z,5.40
2023-04-15T17:27:46.818Z,8.80
2023-04-15T17:30:14.319Z,7.40
2023-04-15T17:32:41.733Z,19.45
2023-04-15T17:35:09.236Z,9.38
2023-04-15T17:37:36.354Z,6.93
2023-04-15T17:40:04.372Z,8.35
2023-04-15T17:42:33.197Z,10.40
2023-04-15T17:45:00.459Z,6.80
2023-04-15T17:47:28.308Z,5.45
2023-04-15T17:49:55.640Z,10.45
2023-04-15T17:52:22.959Z,7.30
2023-04-15T17:54:50.276Z,6.15
2023-04-15T17:57:17.449Z,7.75
2023-04-15T17:59:47.280Z,6.50
2023-04-15T18:02:14.996Z,15.50
2023-04-15T18:04:42.268Z,9.75
2023-04-15T18:07:09.557Z,6.40
2023-04-15T18:09:36.764Z,6.25
2023-04-15T18:12:06.392Z,10.77
2023-04-15T18:14:35.029Z,6.45
2023-04-15T18:17:03.409Z,9.35
2023-04-15T18:19:31.695Z,6.47
2023-04-15T18:22:00.400Z,7.15
2023-04-15T18:24:28.368Z,8.45
2023-04-15T18:26:56.609Z,8.82
2023-04-15T18:29:24.037Z,7.13
2023-04-15T18:31:51.365Z,13.90
2023-04-15T18:34:18.792Z,6.63
2023-04-15T18:36:46.601Z,10.30
2023-04-15T18:39:13.881Z,9.15
2023-04-15T18:41:41.059Z,8.20
2023-04-15T18:44:08.438Z,7.00
2023-04-15T18:46:35.924Z,4.72
2023-04-15T18:49:04.412Z,9.13
2023-04-15T18:51:33.050Z,9.85
2023-04-15T18:53:59.957Z,6.45
2023-04-15T18:56:27.094Z,7.97
2023-04-15T18:59:18.288Z,7.07
2023-04-15T19:01:41.554Z,7.32
2023-04-15T19:04:09.992Z,5.13
2023-04-15T19:06:37.288Z,5.70
2023-04-15T19:09:04.724Z,6.50
2023-04-15T19:11:32.398Z,10.82
2023-04-15T19:13:59.571Z,7.28
2023-04-15T19:16:26.685Z,5.90
2023-04-15T19:18:53.987Z,11.55
2023-04-15T19:21:21.189Z,8.48
2023-04-15T19:23:48.580Z,6.57
2023-04-15T19:26:16.045Z,7.50
2023-04-15T19:28:43.380Z,10.85
2023-04-15T19:31:10.514Z,3.95
2023-04-15T19:33:37.689Z,7.55
2023-04-15T19:36:06.895Z,8.52
2023-04-15T19:38:38.280Z,6.72
2023-04-15T19:41:05.432Z,6.60
2023-04-15T19:43:33.465Z,5.43
2023-04-15T19:46:00.653Z,8.43
2023-04-15T19:48:28.071Z,5.97
2023-04-15T19:50:55.178Z,7.43
2023-04-15T19:53:22.380Z,6.50
2023-04-15T19:55:49.589Z,7.10
2023-04-15T19:58:16.738Z,8.90
2023-04-15T20:00:44.084Z,12.60
2023-04-15T20:03:11.792Z,7.18
2023-04-15T20:05:39.088Z,8.32
2023-04-15T20:08:09.154Z,4.63
2023-04-15T20:10:37.368Z,10.63
2023-04-15T20:13:04.769Z,9.68
2023-04-15T20:15:32.090Z,7.25
2023-04-15T20:17:59.364Z,11.63
2023-04-15T20:20:26.565Z,6.40
2023-04-15T20:22:53.720Z,8.55
2023-04-15T20:25:20.947Z,8.55
2023-04-15T20:27:49.704Z,7.15
2023-04-15T20:30:16.934Z,9.50
2023-04-15T20:32:44.315Z,7.43
2023-04-15T20:35:14.409Z,6.32
2023-04-15T20:37:44.126Z,8.43
2023-04-15T20:40:11.957Z,8.68
2023-04-15T20:42:39.287Z,6.80
2023-04-15T20:45:07.181Z,7.28
2023-04-15T20:47:34.768Z,8.55
2023-04-15T20:50:02.784Z,6.10
2023-04-15T20:52:30.155Z,10.57
2023-04-15T20:54:57.535Z,7.38
2023-04-15T20:57:24.964Z,6.78
2023-04-15T20:59:52.678Z,9.15
2023-04-15T21:02:19.944Z,8.57
2023-04-15T21:04:47.312Z,8.25
2023-04-15T21:07:14.577Z,7.35
2023-04-15T21:09:42.932Z,9.27
2023-04-15T21:12:10.932Z,5.68
2023-04-15T21:14:38.218Z,4.70
2023-04-15T21:17:08.621Z,5.60
2023-04-15T21:19:38.377Z,8.98
2023-04-15T21:22:06.530Z,8.48
2023-04-15T21:24:33.836Z,8.18
2023-04-15T21:27:01.940Z,6.97
2023-04-15T21:29:29.365Z,7.82
2023-04-15T21:31:56.641Z,6.07
2023-04-15T21:34:23.838Z,9.48
2023-04-15T21:36:51.000Z,7.28
2023-04-15T21:39:18.288Z,7.68
2023-04-15T21:41:45.602Z,7.30
2023-04-15T21:44:14.845Z,6.25
2023-04-15T21:46:46.144Z,9.63
2023-04-15T21:49:13.639Z,6.65
2023-04-15T21:51:40.986Z,10.93
2023-04-15T21:54:08.273Z,8.27
2023-04-15T21:56:35.521Z,7.00
2023-04-15T21:59:02.669Z,8.75
2023-04-15T22:01:29.330Z,7.18
2023-04-15T22:03:56.832Z,6.75
2023-04-15T22:06:24.311Z,7.93
2023-04-15T22:09:11.963Z,6.78
2023-04-15T22:11:38.398Z,9.23
2023-04-15T22:14:06.169Z,7.95
2023-04-15T22:16:33.499Z,9.82
2023-04-15T22:19:00.906Z,8.80
2023-04-15T22:21:27.861Z,6.25
2023-04-15T22:24:35.278Z,8.70
2023-04-15T22:26:42.720Z,6.32
2023-04-15T22:29:10.584Z,9.27
2023-04-15T22:31:38.030Z,12.20
2023-04-15T22:34:06.090Z,12.02
2023-04-15T22:36:33.464Z,11.45
2023-04-15T22:39:00.524Z,7.25
2023-04-15T22:41:27.637Z,9.55
2023-04-15T22:43:54.795Z,7.70
2023-04-15T22:46:22.032Z,8.85
2023-04-15T22:48:49.349Z,9.43
2023-04-15T22:51:21.945Z,10.52
2023-04-15T22:53:49.181Z,10.45
2023-04-15T22:56:18.933Z,8.85
2023-04-15T22:58:46.058Z,10.32
2023-04-15T23:01:17.426Z,8.07
2023-04-15T23:03:56.684Z,7.38
2023-04-15T23:06:29.420Z,10.02
2023-04-15T23:08:56.716Z,9.00
2023-04-15T23:11:24.249Z,7.65
2023-04-15T23:13:51.572Z,8.85
2023-04-15T23:16:18.883Z,10.32
2023-04-15T23:18:46.246Z,8.07
2023-04-15T23:21:13.452Z,7.28
2023-04-15T23:23:40.581Z,9.32
2023-04-15T23:26:07.846Z,9.68
2023-04-15T23:28:35.003Z,8.73
2023-04-15T23:31:02.173Z,8.70
2023-04-15T23:33:29.492Z,9.00
2023-04-15T23:35:56.754Z,8.90
2023-04-15T23:38:23.942Z,8.63
2023-04-15T23:40:51.411Z,9.68
2023-04-15T23:43:18.565Z,9.40
2023-04-15T23:45:46.073Z,6.65
2023-04-15T23:48:13.301Z,9.23
2023-04-15T23:50:41.538Z,8.15
2023-04-15T23:53:08.150Z,10.65
2023-04-15T23:55:35.672Z,8.50
2023-04-15T23:58:02.784Z,7.63
